sensor_id;sensor_type;location;lat;lon;timestamp;P1;durP1;ratioP1;P2;durP2;ratioP2
50821;SDS011;36794;51.212;6.980;2023-02-28T00:00:50;10.80;;;4.00;;
50821;SDS011;36794;51.212;6.980;2023-02-28T00:03:16;4.63;;;3.47;;
50821;SDS011;36794;51.212;6.980;2023-02-28T00:05:42;6.07;;;3.40;;
50821;SDS011;36794;51.212;6.980;2023-02-28T00:08:08;6.67;;;4.37;;
50821;SDS011;36794;51.212;6.980;2023-02-28T00:10:34;7.23;;;3.87;;
50821;SDS011;36794;51.212;6.980;2023-02-28T00:13:01;8.80;;;4.47;;
50821;SDS011;36794;51.212;6.980;2023-02-28T00:15:28;9.07;;;4.17;;
50821;SDS011;36794;51.212;6.980;2023-02-28T00:17:54;6.10;;;3.57;;
50821;SDS011;36794;51.212;6.980;2023-02-28T00:20:20;6.00;;;3.73;;
50821;SDS011;36794;51.212;6.980;2023-02-28T00:22:47;8.67;;;4.30;;
50821;SDS011;36794;51.212;6.980;2023-02-28T00:25:15;9.20;;;3.93;;
50821;SDS011;36794;51.212;6.980;2023-02-28T00:27:41;5.47;;;3.80;;
50821;SDS011;36794;51.212;6.980;2023-02-28T00:30:09;7.27;;;4.17;;
50821;SDS011;36794;51.212;6.980;2023-02-28T00:32:35;5.80;;;3.57;;
50821;SDS011;36794;51.212;6.980;2023-02-28T00:35:02;7.67;;;4.10;;
50821;SDS011;36794;51.212;6.980;2023-02-28T00:37:28;7.67;;;4.07;;
50821;SDS011;36794;51.212;6.980;2023-02-28T00:39:54;10.77;;;4.47;;
50821;SDS011;36794;51.212;6.980;2023-02-28T00:42:20;7.80;;;4.23;;
50821;SDS011;36794;51.212;6.980;2023-02-28T00:44:45;9.13;;;4.07;;
50821;SDS011;36794;51.212;6.980;2023-02-28T00:47:11;11.13;;;5.20;;
50821;SDS011;36794;51.212;6.980;2023-02-28T00:49:37;8.60;;;4.10;;
50821;SDS011;36794;51.212;6.980;2023-02-28T00:52:04;9.47;;;4.40;;
50821;SDS011;36794;51.212;6.980;2023-02-28T00:54:30;9.40;;;4.07;;
50821;SDS011;36794;51.212;6.980;2023-02-28T00:56:56;8.37;;;4.30;;
50821;SDS011;36794;51.212;6.980;2023-02-28T00:59:22;8.97;;;4.07;;
50821;SDS011;36794;51.212;6.980;2023-02-28T01:01:48;9.20;;;4.50;;
50821;SDS011;36794;51.212;6.980;2023-02-28T01:04:14;9.27;;;4.00;;
50821;SDS011;36794;51.212;6.980;2023-02-28T01:06:40;7.60;;;4.40;;
50821;SDS011;36794;51.212;6.980;2023-02-28T01:09:06;7.33;;;4.00;;
50821;SDS011;36794;51.212;6.980;2023-02-28T01:11:33;7.80;;;4.33;;
50821;SDS011;36794;51.212;6.980;2023-02-28T01:13:59;7.53;;;4.10;;
50821;SDS011;36794;51.212;6.980;2023-02-28T01:16:26;8.03;;;4.17;;
50821;SDS011;36794;51.212;6.980;2023-02-28T01:18:52;5.67;;;4.23;;
50821;SDS011;36794;51.212;6.980;2023-02-28T01:21:19;9.80;;;4.33;;
50821;SDS011;36794;51.212;6.980;2023-02-28T01:23:46;9.07;;;4.23;;
50821;SDS011;36794;51.212;6.980;2023-02-28T01:26:13;6.87;;;4.40;;
50821;SDS011;36794;51.212;6.980;2023-02-28T01:28:39;7.87;;;4.03;;
50821;SDS011;36794;51.212;6.980;2023-02-28T01:31:06;9.33;;;3.90;;
50821;SDS011;36794;51.212;6.980;2023-02-28T01:33:32;8.90;;;5.20;;
50821;SDS011;36794;51.212;6.980;2023-02-28T01:35:59;10.30;;;4.97;;
50821;SDS011;36794;51.212;6.980;2023-02-28T01:38:25;9.80;;;4.77;;
50821;SDS011;36794;51.212;6.980;2023-02-28T01:40:51;9.93;;;4.90;;
50821;SDS011;36794;51.212;6.980;2023-02-28T01:43:27;9.17;;;4.90;;
50821;SDS011;36794;51.212;6.980;2023-02-28T01:45:55;9.00;;;5.17;;
50821;SDS011;36794;51.212;6.980;2023-02-28T01:48:23;7.80;;;4.63;;
50821;SDS011;36794;51.212;6.980;2023-02-28T01:50:51;10.03;;;4.60;;
50821;SDS011;36794;51.212;6.980;2023-02-28T01:53:18;8.90;;;4.50;;
50821;SDS011;36794;51.212;6.980;2023-02-28T01:55:46;11.80;;;4.90;;
50821;SDS011;36794;51.212;6.980;2023-02-28T01:58:13;8.67;;;5.30;;
50821;SDS011;36794;51.212;6.980;2023-02-28T02:00:39;8.20;;;5.00;;
50821;SDS011;36794;51.212;6.980;2023-02-28T02:03:11;8.10;;;4.90;;
50821;SDS011;36794;51.212;6.980;2023-02-28T02:05:38;7.70;;;5.13;;
50821;SDS011;36794;51.212;6.980;2023-02-28T02:08:05;6.20;;;4.73;;
50821;SDS011;36794;51.212;6.980;2023-02-28T02:10:33;9.50;;;4.83;;
50821;SDS011;36794;51.212;6.980;2023-02-28T02:15:29;8.13;;;4.80;;
50821;SDS011;36794;51.212;6.980;2023-02-28T02:17:57;8.17;;;5.30;;
50821;SDS011;36794;51.212;6.980;2023-02-28T02:25:39;9.85;;;5.03;;
50821;SDS011;36794;51.212;6.980;2023-02-28T02:41:08;9.07;;;5.03;;
50821;SDS011;36794;51.212;6.980;2023-02-28T02:43:42;7.47;;;4.87;;
50821;SDS011;36794;51.212;6.980;2023-02-28T02:46:13;8.90;;;5.23;;
50821;SDS011;36794;51.212;6.980;2023-02-28T02:48:40;7.10;;;4.63;;
50821;SDS011;36794;51.212;6.980;2023-02-28T02:51:09;7.47;;;5.37;;
50821;SDS011;36794;51.212;6.980;2023-02-28T02:53:47;9.43;;;5.93;;
50821;SDS011;36794;51.212;6.980;2023-02-28T02:56:14;11.13;;;5.60;;
50821;SDS011;36794;51.212;6.980;2023-02-28T02:58:41;12.10;;;5.50;;
50821;SDS011;36794;51.212;6.980;2023-02-28T03:01:11;8.07;;;5.27;;
50821;SDS011;36794;51.212;6.980;2023-02-28T03:03:37;9.27;;;4.93;;
50821;SDS011;36794;51.212;6.980;2023-02-28T03:06:03;9.93;;;5.70;;
50821;SDS011;36794;51.212;6.980;2023-02-28T03:08:34;8.73;;;5.60;;
50821;SDS011;36794;51.212;6.980;2023-02-28T03:11:01;9.57;;;5.17;;
50821;SDS011;36794;51.212;6.980;2023-02-28T03:14:31;8.83;;;4.77;;
50821;SDS011;36794;51.212;6.980;2023-02-28T03:24:10;12.17;;;5.60;;
50821;SDS011;36794;51.212;6.980;2023-02-28T03:26:42;10.93;;;5.80;;
50821;SDS011;36794;51.212;6.980;2023-02-28T03:29:16;15.30;;;5.87;;
50821;SDS011;36794;51.212;6.980;2023-02-28T03:31:45;8.43;;;5.70;;
50821;SDS011;36794;51.212;6.980;2023-02-28T03:34:25;8.53;;;5.63;;
50821;SDS011;36794;51.212;6.980;2023-02-28T03:36:53;9.60;;;5.87;;
50821;SDS011;36794;51.212;6.980;2023-02-28T03:39:21;13.67;;;5.90;;
50821;SDS011;36794;51.212;6.980;2023-02-28T03:41:57;11.57;;;6.03;;
50821;SDS011;36794;51.212;6.980;2023-02-28T03:44:25;10.03;;;6.30;;
50821;SDS011;36794;51.212;6.980;2023-02-28T03:46:59;12.33;;;5.80;;
50821;SDS011;36794;51.212;6.980;2023-02-28T03:49:27;12.03;;;6.30;;
50821;SDS011;36794;51.212;6.980;2023-02-28T03:51:54;10.33;;;5.50;;
50821;SDS011;36794;51.212;6.980;2023-02-28T03:54:23;14.27;;;6.73;;
50821;SDS011;36794;51.212;6.980;2023-02-28T03:56:56;10.97;;;5.73;;
50821;SDS011;36794;51.212;6.980;2023-02-28T03:59:26;11.33;;;5.87;;
50821;SDS011;36794;51.212;6.980;2023-02-28T04:01:53;11.40;;;5.87;;
50821;SDS011;36794;51.212;6.980;2023-02-28T04:04:20;12.27;;;6.27;;
50821;SDS011;36794;51.212;6.980;2023-02-28T04:06:49;10.83;;;5.23;;
50821;SDS011;36794;51.212;6.980;2023-02-28T04:09:15;9.90;;;5.47;;
50821;SDS011;36794;51.212;6.980;2023-02-28T04:11:46;9.40;;;5.70;;
50821;SDS011;36794;51.212;6.980;2023-02-28T04:14:16;11.57;;;5.67;;
50821;SDS011;36794;51.212;6.980;2023-02-28T04:16:43;9.50;;;5.73;;
50821;SDS011;36794;51.212;6.980;2023-02-28T04:19:10;9.23;;;5.67;;
50821;SDS011;36794;51.212;6.980;2023-02-28T04:21:41;12.77;;;5.53;;
50821;SDS011;36794;51.212;6.980;2023-02-28T04:24:08;10.83;;;5.27;;
50821;SDS011;36794;51.212;6.980;2023-02-28T04:26:38;11.57;;;6.17;;
50821;SDS011;36794;51.212;6.980;2023-02-28T04:29:05;9.73;;;5.17;;
50821;SDS011;36794;51.212;6.980;2023-02-28T04:31:32;8.73;;;5.00;;
50821;SDS011;36794;51.212;6.980;2023-02-28T04:33:58;10.30;;;5.47;;
50821;SDS011;36794;51.212;6.980;2023-02-28T04:36:24;8.70;;;5.27;;
50821;SDS011;36794;51.212;6.980;2023-02-28T04:38:50;13.57;;;5.80;;
50821;SDS011;36794;51.212;6.980;2023-02-28T04:41:16;11.13;;;5.50;;
50821;SDS011;36794;51.212;6.980;2023-02-28T04:43:42;9.30;;;5.33;;
50821;SDS011;36794;51.212;6.980;2023-02-28T04:46:08;9.93;;;5.47;;
50821;SDS011;36794;51.212;6.980;2023-02-28T04:48:36;7.83;;;4.50;;
50821;SDS011;36794;51.212;6.980;2023-02-28T04:51:03;10.87;;;4.60;;
50821;SDS011;36794;51.212;6.980;2023-02-28T04:53:29;8.20;;;4.13;;
50821;SDS011;36794;51.212;6.980;2023-02-28T04:55:56;8.07;;;4.37;;
50821;SDS011;36794;51.212;6.980;2023-02-28T04:58:22;10.37;;;4.30;;
50821;SDS011;36794;51.212;6.980;2023-02-28T05:00:48;7.77;;;4.10;;
50821;SDS011;36794;51.212;6.980;2023-02-28T05:03:14;9.30;;;4.50;;
50821;SDS011;36794;51.212;6.980;2023-02-28T05:05:40;5.23;;;3.97;;
50821;SDS011;36794;51.212;6.980;2023-02-28T05:08:06;6.47;;;4.23;;
50821;SDS011;36794;51.212;6.980;2023-02-28T05:10:32;8.03;;;4.40;;
50821;SDS011;36794;51.212;6.980;2023-02-28T05:12:58;8.97;;;4.30;;
50821;SDS011;36794;51.212;6.980;2023-02-28T05:15:24;7.73;;;4.17;;
50821;SDS011;36794;51.212;6.980;2023-02-28T05:17:50;8.10;;;4.10;;
50821;SDS011;36794;51.212;6.980;2023-02-28T05:20:16;6.80;;;3.83;;
50821;SDS011;36794;51.212;6.980;2023-02-28T05:22:42;8.30;;;4.77;;
50821;SDS011;36794;51.212;6.980;2023-02-28T05:25:13;7.27;;;3.80;;
50821;SDS011;36794;51.212;6.980;2023-02-28T05:27:41;7.33;;;3.60;;
50821;SDS011;36794;51.212;6.980;2023-02-28T05:30:07;5.87;;;3.33;;
50821;SDS011;36794;51.212;6.980;2023-02-28T05:32:35;10.17;;;3.53;;
50821;SDS011;36794;51.212;6.980;2023-02-28T05:35:01;6.97;;;3.63;;
50821;SDS011;36794;51.212;6.980;2023-02-28T05:37:27;9.90;;;4.50;;
50821;SDS011;36794;51.212;6.980;2023-02-28T05:39:53;6.63;;;3.83;;
50821;SDS011;36794;51.212;6.980;2023-02-28T05:42:19;9.07;;;4.03;;
50821;SDS011;36794;51.212;6.980;2023-02-28T05:44:45;8.33;;;3.70;;
50821;SDS011;36794;51.212;6.980;2023-02-28T05:47:12;6.37;;;3.57;;
50821;SDS011;36794;51.212;6.980;2023-02-28T05:49:40;8.53;;;3.93;;
50821;SDS011;36794;51.212;6.980;2023-02-28T05:52:06;9.27;;;4.20;;
50821;SDS011;36794;51.212;6.980;2023-02-28T05:54:32;7.10;;;3.40;;
50821;SDS011;36794;51.212;6.980;2023-02-28T05:56:58;6.87;;;4.10;;
50821;SDS011;36794;51.212;6.980;2023-02-28T05:59:24;5.67;;;3.83;;
50821;SDS011;36794;51.212;6.980;2023-02-28T06:01:50;5.90;;;3.60;;
50821;SDS011;36794;51.212;6.980;2023-02-28T06:04:18;8.47;;;3.70;;
50821;SDS011;36794;51.212;6.980;2023-02-28T06:06:45;7.43;;;4.00;;
50821;SDS011;36794;51.212;6.980;2023-02-28T06:09:11;7.23;;;3.87;;
50821;SDS011;36794;51.212;6.980;2023-02-28T06:11:37;8.07;;;4.17;;
50821;SDS011;36794;51.212;6.980;2023-02-28T06:14:03;8.03;;;4.00;;
50821;SDS011;36794;51.212;6.980;2023-02-28T06:16:30;7.40;;;3.73;;
50821;SDS011;36794;51.212;6.980;2023-02-28T06:18:57;8.63;;;4.60;;
50821;SDS011;36794;51.212;6.980;2023-02-28T06:21:23;5.17;;;3.60;;
50821;SDS011;36794;51.212;6.980;2023-02-28T06:23:49;6.40;;;3.47;;
50821;SDS011;36794;51.212;6.980;2023-02-28T06:26:15;9.73;;;3.60;;
50821;SDS011;36794;51.212;6.980;2023-02-28T06:28:41;6.97;;;4.07;;
50821;SDS011;36794;51.212;6.980;2023-02-28T06:31:08;7.83;;;4.10;;
50821;SDS011;36794;51.212;6.980;2023-02-28T06:33:34;12.70;;;4.07;;
50821;SDS011;36794;51.212;6.980;2023-02-28T06:36:00;5.80;;;3.43;;
50821;SDS011;36794;51.212;6.980;2023-02-28T06:38:26;5.83;;;3.57;;
50821;SDS011;36794;51.212;6.980;2023-02-28T06:40:53;6.83;;;3.70;;
50821;SDS011;36794;51.212;6.980;2023-02-28T06:43:19;11.30;;;4.43;;
50821;SDS011;36794;51.212;6.980;2023-02-28T06:45:45;8.17;;;3.70;;
50821;SDS011;36794;51.212;6.980;2023-02-28T06:48:11;5.20;;;3.37;;
50821;SDS011;36794;51.212;6.980;2023-02-28T06:50:37;6.90;;;3.73;;
50821;SDS011;36794;51.212;6.980;2023-02-28T06:53:03;6.80;;;3.93;;
50821;SDS011;36794;51.212;6.980;2023-02-28T06:55:29;6.07;;;3.23;;
50821;SDS011;36794;51.212;6.980;2023-02-28T06:57:55;6.07;;;3.43;;
50821;SDS011;36794;51.212;6.980;2023-02-28T07:00:21;11.87;;;3.23;;
50821;SDS011;36794;51.212;6.980;2023-02-28T07:02:47;6.13;;;3.70;;
50821;SDS011;36794;51.212;6.980;2023-02-28T07:05:13;7.13;;;2.80;;
50821;SDS011;36794;51.212;6.980;2023-02-28T07:07:39;6.13;;;2.80;;
50821;SDS011;36794;51.212;6.980;2023-02-28T07:10:09;10.03;;;3.00;;
50821;SDS011;36794;51.212;6.980;2023-02-28T07:12:35;12.90;;;3.23;;
50821;SDS011;36794;51.212;6.980;2023-02-28T07:15:01;4.47;;;2.47;;
50821;SDS011;36794;51.212;6.980;2023-02-28T07:17:28;8.50;;;2.70;;
50821;SDS011;36794;51.212;6.980;2023-02-28T07:19:54;5.53;;;2.73;;
50821;SDS011;36794;51.212;6.980;2023-02-28T07:22:19;7.33;;;3.10;;
50821;SDS011;36794;51.212;6.980;2023-02-28T07:24:46;5.00;;;2.60;;
50821;SDS011;36794;51.212;6.980;2023-02-28T07:27:11;8.53;;;3.03;;
50821;SDS011;36794;51.212;6.980;2023-02-28T07:29:50;6.57;;;2.83;;
50821;SDS011;36794;51.212;6.980;2023-02-28T07:32:16;11.70;;;3.27;;
50821;SDS011;36794;51.212;6.980;2023-02-28T07:34:42;6.97;;;2.97;;
50821;SDS011;36794;51.212;6.980;2023-02-28T07:37:08;9.93;;;2.83;;
50821;SDS011;36794;51.212;6.980;2023-02-28T07:39:34;6.03;;;3.00;;
50821;SDS011;36794;51.212;6.980;2023-02-28T07:42:00;6.27;;;2.67;;
50821;SDS011;36794;51.212;6.980;2023-02-28T07:44:28;7.40;;;2.80;;
50821;SDS011;36794;51.212;6.980;2023-02-28T07:46:54;5.87;;;2.57;;
50821;SDS011;36794;51.212;6.980;2023-02-28T07:49:20;6.77;;;2.87;;
50821;SDS011;36794;51.212;6.980;2023-02-28T07:51:46;8.47;;;3.50;;
50821;SDS011;36794;51.212;6.980;2023-02-28T07:54:12;6.87;;;2.80;;
50821;SDS011;36794;51.212;6.980;2023-02-28T07:56:38;9.47;;;2.80;;
50821;SDS011;36794;51.212;6.980;2023-02-28T07:59:04;13.10;;;3.00;;
50821;SDS011;36794;51.212;6.980;2023-02-28T08:01:30;16.40;;;3.07;;
50821;SDS011;36794;51.212;6.980;2023-02-28T08:03:56;11.37;;;2.97;;
50821;SDS011;36794;51.212;6.980;2023-02-28T08:06:24;7.80;;;3.13;;
50821;SDS011;36794;51.212;6.980;2023-02-28T08:08:51;11.87;;;3.03;;
50821;SDS011;36794;51.212;6.980;2023-02-28T08:11:18;6.20;;;2.90;;
50821;SDS011;36794;51.212;6.980;2023-02-28T08:13:45;11.47;;;2.90;;
50821;SDS011;36794;51.212;6.980;2023-02-28T08:16:11;8.80;;;2.60;;
50821;SDS011;36794;51.212;6.980;2023-02-28T08:18:42;8.77;;;2.40;;
50821;SDS011;36794;51.212;6.980;2023-02-28T08:21:08;7.47;;;2.60;;
50821;SDS011;36794;51.212;6.980;2023-02-28T08:23:35;7.40;;;2.70;;
50821;SDS011;36794;51.212;6.980;2023-02-28T08:26:01;9.03;;;2.20;;
50821;SDS011;36794;51.212;6.980;2023-02-28T08:28:27;2.87;;;1.90;;
50821;SDS011;36794;51.212;6.980;2023-02-28T08:30:53;8.50;;;2.40;;
50821;SDS011;36794;51.212;6.980;2023-02-28T08:33:19;6.97;;;1.97;;
50821;SDS011;36794;51.212;6.980;2023-02-28T08:35:45;2.90;;;1.67;;
50821;SDS011;36794;51.212;6.980;2023-02-28T08:38:11;4.40;;;2.17;;
50821;SDS011;36794;51.212;6.980;2023-02-28T08:40:37;8.67;;;2.00;;
50821;SDS011;36794;51.212;6.980;2023-02-28T08:43:03;2.73;;;1.60;;
50821;SDS011;36794;51.212;6.980;2023-02-28T08:45:29;2.90;;;1.60;;
50821;SDS011;36794;51.212;6.980;2023-02-28T08:47:55;2.77;;;1.50;;
50821;SDS011;36794;51.212;6.980;2023-02-28T08:50:21;1.50;;;1.10;;
50821;SDS011;36794;51.212;6.980;2023-02-28T08:52:47;3.20;;;1.20;;
50821;SDS011;36794;51.212;6.980;2023-02-28T08:55:13;4.67;;;1.40;;
50821;SDS011;36794;51.212;6.980;2023-02-28T08:57:39;4.47;;;1.13;;
50821;SDS011;36794;51.212;6.980;2023-02-28T09:00:05;2.43;;;1.20;;
50821;SDS011;36794;51.212;6.980;2023-02-28T09:02:32;1.97;;;1.00;;
50821;SDS011;36794;51.212;6.980;2023-02-28T09:04:58;2.63;;;1.33;;
50821;SDS011;36794;51.212;6.980;2023-02-28T09:07:24;2.63;;;1.20;;
50821;SDS011;36794;51.212;6.980;2023-02-28T09:09:51;5.07;;;1.33;;
50821;SDS011;36794;51.212;6.980;2023-02-28T09:12:21;4.17;;;1.20;;
50821;SDS011;36794;51.212;6.980;2023-02-28T09:14:47;6.47;;;1.30;;
50821;SDS011;36794;51.212;6.980;2023-02-28T09:17:13;3.67;;;1.30;;
50821;SDS011;36794;51.212;6.980;2023-02-28T09:19:39;2.67;;;1.37;;
50821;SDS011;36794;51.212;6.980;2023-02-28T09:22:05;3.90;;;1.30;;
50821;SDS011;36794;51.212;6.980;2023-02-28T09:24:31;4.13;;;1.47;;
50821;SDS011;36794;51.212;6.980;2023-02-28T09:26:57;3.37;;;1.80;;
50821;SDS011;36794;51.212;6.980;2023-02-28T09:29:23;4.77;;;1.80;;
50821;SDS011;36794;51.212;6.980;2023-02-28T09:31:49;4.60;;;1.40;;
50821;SDS011;36794;51.212;6.980;2023-02-28T09:34:15;4.40;;;1.53;;
50821;SDS011;36794;51.212;6.980;2023-02-28T09:36:42;3.27;;;1.23;;
50821;SDS011;36794;51.212;6.980;2023-02-28T09:39:08;4.23;;;1.67;;
50821;SDS011;36794;51.212;6.980;2023-02-28T09:41:52;2.00;;;1.20;;
50821;SDS011;36794;51.212;6.980;2023-02-28T09:44:25;3.65;;;1.30;;
50821;SDS011;36794;51.212;6.980;2023-02-28T09:46:54;2.13;;;1.20;;
50821;SDS011;36794;51.212;6.980;2023-02-28T09:49:25;5.63;;;1.07;;
50821;SDS011;36794;51.212;6.980;2023-02-28T09:52:03;3.43;;;1.10;;
50821;SDS011;36794;51.212;6.980;2023-02-28T09:54:31;5.07;;;1.40;;
50821;SDS011;36794;51.212;6.980;2023-02-28T10:01:55;6.43;;;1.23;;
50821;SDS011;36794;51.212;6.980;2023-02-28T10:06:56;4.47;;;1.20;;
50821;SDS011;36794;51.212;6.980;2023-02-28T10:09:24;2.43;;;0.70;;
50821;SDS011;36794;51.212;6.980;2023-02-28T10:11:52;2.70;;;1.20;;
50821;SDS011;36794;51.212;6.980;2023-02-28T10:14:19;1.93;;;1.20;;
50821;SDS011;36794;51.212;6.980;2023-02-28T10:16:47;2.37;;;1.10;;
50821;SDS011;36794;51.212;6.980;2023-02-28T10:19:20;2.07;;;1.10;;
50821;SDS011;36794;51.212;6.980;2023-02-28T10:21:49;2.53;;;1.30;;
50821;SDS011;36794;51.212;6.980;2023-02-28T10:26:45;4.53;;;1.30;;
50821;SDS011;36794;51.212;6.980;2023-02-28T10:29:12;2.10;;;1.40;;
50821;SDS011;36794;51.212;6.980;2023-02-28T10:31:39;2.90;;;1.43;;
50821;SDS011;36794;51.212;6.980;2023-02-28T10:34:05;3.03;;;1.37;;
50821;SDS011;36794;51.212;6.980;2023-02-28T10:36:31;4.03;;;1.37;;
50821;SDS011;36794;51.212;6.980;2023-02-28T10:38:57;2.23;;;1.47;;
50821;SDS011;36794;51.212;6.980;2023-02-28T10:41:29;2.23;;;1.30;;
50821;SDS011;36794;51.212;6.980;2023-02-28T10:44:13;7.13;;;1.70;;
50821;SDS011;36794;51.212;6.980;2023-02-28T10:46:40;3.70;;;1.47;;
50821;SDS011;36794;51.212;6.980;2023-02-28T10:49:13;4.80;;;1.20;;
50821;SDS011;36794;51.212;6.980;2023-02-28T10:51:40;3.00;;;1.20;;
50821;SDS011;36794;51.212;6.980;2023-02-28T10:54:14;2.63;;;1.40;;
50821;SDS011;36794;51.212;6.980;2023-02-28T10:56:40;2.97;;;1.70;;
50821;SDS011;36794;51.212;6.980;2023-02-28T11:01:51;3.15;;;1.38;;
50821;SDS011;36794;51.212;6.980;2023-02-28T11:06:44;2.70;;;1.60;;
50821;SDS011;36794;51.212;6.980;2023-02-28T11:09:16;3.13;;;1.60;;
50821;SDS011;36794;51.212;6.980;2023-02-28T11:11:44;4.33;;;1.70;;
50821;SDS011;36794;51.212;6.980;2023-02-28T11:14:19;3.63;;;1.50;;
50821;SDS011;36794;51.212;6.980;2023-02-28T11:16:46;3.97;;;1.40;;
50821;SDS011;36794;51.212;6.980;2023-02-28T11:19:28;3.47;;;1.37;;
50821;SDS011;36794;51.212;6.980;2023-02-28T11:24:30;2.73;;;1.50;;
50821;SDS011;36794;51.212;6.980;2023-02-28T11:26:57;2.65;;;1.48;;
50821;SDS011;36794;51.212;6.980;2023-02-28T11:34:34;3.78;;;1.80;;
50821;SDS011;36794;51.212;6.980;2023-02-28T11:37:00;3.33;;;1.90;;
50821;SDS011;36794;51.212;6.980;2023-02-28T11:39:29;5.47;;;2.10;;
50821;SDS011;36794;51.212;6.980;2023-02-28T11:42:09;3.57;;;1.53;;
50821;SDS011;36794;51.212;6.980;2023-02-28T11:44:43;2.10;;;1.60;;
50821;SDS011;36794;51.212;6.980;2023-02-28T11:47:31;2.53;;;1.70;;
50821;SDS011;36794;51.212;6.980;2023-02-28T11:52:53;2.80;;;1.80;;
50821;SDS011;36794;51.212;6.980;2023-02-28T11:55:27;1.97;;;1.40;;
50821;SDS011;36794;51.212;6.980;2023-02-28T12:03:16;3.10;;;1.92;;
50821;SDS011;36794;51.212;6.980;2023-02-28T12:13:21;3.50;;;1.23;;
50821;SDS011;36794;51.212;6.980;2023-02-28T12:18:27;3.17;;;1.70;;
50821;SDS011;36794;51.212;6.980;2023-02-28T12:28:40;1.77;;;1.40;;
50821;SDS011;36794;51.212;6.980;2023-02-28T12:33:43;4.37;;;1.80;;
50821;SDS011;36794;51.212;6.980;2023-02-28T12:36:11;4.47;;;1.90;;
50821;SDS011;36794;51.212;6.980;2023-02-28T12:38:56;3.13;;;1.83;;
50821;SDS011;36794;51.212;6.980;2023-02-28T12:46:37;4.63;;;1.70;;
50821;SDS011;36794;51.212;6.980;2023-02-28T12:49:05;5.73;;;2.00;;
50821;SDS011;36794;51.212;6.980;2023-02-28T12:51:32;4.57;;;1.77;;
50821;SDS011;36794;51.212;6.980;2023-02-28T12:54:12;5.50;;;1.80;;
50821;SDS011;36794;51.212;6.980;2023-02-28T12:56:53;5.93;;;1.87;;
50821;SDS011;36794;51.212;6.980;2023-02-28T12:59:22;5.63;;;2.03;;
50821;SDS011;36794;51.212;6.980;2023-02-28T13:07:32;2.58;;;1.70;;
50821;SDS011;36794;51.212;6.980;2023-02-28T13:10:02;3.47;;;1.77;;
50821;SDS011;36794;51.212;6.980;2023-02-28T13:12:28;6.30;;;1.70;;
50821;SDS011;36794;51.212;6.980;2023-02-28T13:15:03;4.83;;;2.00;;
50821;SDS011;36794;51.212;6.980;2023-02-28T13:17:30;5.53;;;2.00;;
50821;SDS011;36794;51.212;6.980;2023-02-28T13:19:59;5.43;;;1.70;;
50821;SDS011;36794;51.212;6.980;2023-02-28T13:27:21;2.13;;;1.87;;
50821;SDS011;36794;51.212;6.980;2023-02-28T13:29:49;3.67;;;1.80;;
50821;SDS011;36794;51.212;6.980;2023-02-28T13:32:18;7.57;;;2.17;;
50821;SDS011;36794;51.212;6.980;2023-02-28T13:39:50;8.37;;;1.97;;
50821;SDS011;36794;51.212;6.980;2023-02-28T13:52:44;5.93;;;2.30;;
50821;SDS011;36794;51.212;6.980;2023-02-28T14:03:10;3.05;;;2.17;;
50821;SDS011;36794;51.212;6.980;2023-02-28T14:05:40;4.73;;;2.27;;
50821;SDS011;36794;51.212;6.980;2023-02-28T14:08:16;5.93;;;2.17;;
50821;SDS011;36794;51.212;6.980;2023-02-28T14:10:46;6.43;;;1.80;;
50821;SDS011;36794;51.212;6.980;2023-02-28T14:16:01;3.08;;;1.95;;
50821;SDS011;36794;51.212;6.980;2023-02-28T14:18:29;2.60;;;2.03;;
50821;SDS011;36794;51.212;6.980;2023-02-28T14:23:38;2.90;;;2.10;;
50821;SDS011;36794;51.212;6.980;2023-02-28T14:31:13;3.57;;;2.40;;
50821;SDS011;36794;51.212;6.980;2023-02-28T14:38:59;6.47;;;2.08;;
50821;SDS011;36794;51.212;6.980;2023-02-28T14:43:54;3.07;;;1.90;;
50821;SDS011;36794;51.212;6.980;2023-02-28T14:46:20;5.43;;;2.30;;
50821;SDS011;36794;51.212;6.980;2023-02-28T14:48:47;4.17;;;2.37;;
50821;SDS011;36794;51.212;6.980;2023-02-28T14:51:17;5.83;;;2.30;;
50821;SDS011;36794;51.212;6.980;2023-02-28T14:53:44;5.63;;;2.30;;
50821;SDS011;36794;51.212;6.980;2023-02-28T14:56:22;4.00;;;2.83;;
50821;SDS011;36794;51.212;6.980;2023-02-28T14:58:51;7.30;;;2.90;;
50821;SDS011;36794;51.212;6.980;2023-02-28T15:01:19;6.10;;;2.47;;
50821;SDS011;36794;51.212;6.980;2023-02-28T15:03:45;5.97;;;2.30;;
50821;SDS011;36794;51.212;6.980;2023-02-28T15:06:13;2.93;;;2.33;;
50821;SDS011;36794;51.212;6.980;2023-02-28T15:08:39;5.83;;;2.53;;
50821;SDS011;36794;51.212;6.980;2023-02-28T15:11:06;3.13;;;2.20;;
50821;SDS011;36794;51.212;6.980;2023-02-28T15:13:38;4.47;;;2.60;;
50821;SDS011;36794;51.212;6.980;2023-02-28T15:16:06;3.23;;;2.50;;
50821;SDS011;36794;51.212;6.980;2023-02-28T15:18:40;4.23;;;2.60;;
50821;SDS011;36794;51.212;6.980;2023-02-28T15:21:13;3.30;;;2.00;;
50821;SDS011;36794;51.212;6.980;2023-02-28T15:23:40;4.37;;;2.43;;
50821;SDS011;36794;51.212;6.980;2023-02-28T15:26:06;3.27;;;2.40;;
50821;SDS011;36794;51.212;6.980;2023-02-28T15:28:33;4.00;;;2.43;;
50821;SDS011;36794;51.212;6.980;2023-02-28T15:31:00;3.33;;;2.30;;
50821;SDS011;36794;51.212;6.980;2023-02-28T15:33:27;5.10;;;2.57;;
50821;SDS011;36794;51.212;6.980;2023-02-28T15:36:03;4.50;;;2.50;;
50821;SDS011;36794;51.212;6.980;2023-02-28T15:38:32;5.03;;;2.40;;
50821;SDS011;36794;51.212;6.980;2023-02-28T15:40:59;2.93;;;2.17;;
50821;SDS011;36794;51.212;6.980;2023-02-28T15:45:52;4.90;;;2.30;;
50821;SDS011;36794;51.212;6.980;2023-02-28T15:48:38;5.53;;;2.80;;
50821;SDS011;36794;51.212;6.980;2023-02-28T15:53:39;4.63;;;2.60;;
50821;SDS011;36794;51.212;6.980;2023-02-28T15:56:12;7.10;;;2.83;;
50821;SDS011;36794;51.212;6.980;2023-02-28T15:58:41;2.87;;;2.27;;
50821;SDS011;36794;51.212;6.980;2023-02-28T16:01:16;5.17;;;2.50;;
50821;SDS011;36794;51.212;6.980;2023-02-28T16:06:32;5.37;;;2.47;;
50821;SDS011;36794;51.212;6.980;2023-02-28T16:08:54;4.00;;;2.60;;
50821;SDS011;36794;51.212;6.980;2023-02-28T16:11:20;4.67;;;2.37;;
50821;SDS011;36794;51.212;6.980;2023-02-28T16:13:47;4.00;;;2.70;;
50821;SDS011;36794;51.212;6.980;2023-02-28T16:16:20;3.90;;;2.47;;
50821;SDS011;36794;51.212;6.980;2023-02-28T16:18:46;4.17;;;2.60;;
50821;SDS011;36794;51.212;6.980;2023-02-28T16:21:12;4.73;;;2.73;;
50821;SDS011;36794;51.212;6.980;2023-02-28T16:23:38;3.67;;;2.83;;
50821;SDS011;36794;51.212;6.980;2023-02-28T16:26:04;3.83;;;2.73;;
50821;SDS011;36794;51.212;6.980;2023-02-28T16:28:31;7.37;;;3.20;;
50821;SDS011;36794;51.212;6.980;2023-02-28T16:31:02;5.30;;;2.90;;
50821;SDS011;36794;51.212;6.980;2023-02-28T16:33:29;4.63;;;2.87;;
50821;SDS011;36794;51.212;6.980;2023-02-28T16:35:55;6.97;;;3.33;;
50821;SDS011;36794;51.212;6.980;2023-02-28T16:38:21;5.53;;;3.07;;
50821;SDS011;36794;51.212;6.980;2023-02-28T16:40:50;7.13;;;3.00;;
50821;SDS011;36794;51.212;6.980;2023-02-28T16:43:19;4.47;;;3.20;;
50821;SDS011;36794;51.212;6.980;2023-02-28T16:45:46;4.00;;;3.03;;
50821;SDS011;36794;51.212;6.980;2023-02-28T16:48:13;7.27;;;3.07;;
50821;SDS011;36794;51.212;6.980;2023-02-28T16:50:39;7.73;;;3.20;;
50821;SDS011;36794;51.212;6.980;2023-02-28T16:53:05;5.17;;;3.00;;
50821;SDS011;36794;51.212;6.980;2023-02-28T16:55:31;9.27;;;3.30;;
50821;SDS011;36794;51.212;6.980;2023-02-28T16:57:58;9.87;;;2.90;;
50821;SDS011;36794;51.212;6.980;2023-02-28T17:00:25;8.57;;;2.90;;
50821;SDS011;36794;51.212;6.980;2023-02-28T17:02:52;3.93;;;3.23;;
50821;SDS011;36794;51.212;6.980;2023-02-28T17:05:18;9.80;;;3.20;;
50821;SDS011;36794;51.212;6.980;2023-02-28T17:07:44;6.90;;;3.30;;
50821;SDS011;36794;51.212;6.980;2023-02-28T17:10:17;9.23;;;3.47;;
50821;SDS011;36794;51.212;6.980;2023-02-28T17:12:44;6.80;;;3.20;;
50821;SDS011;36794;51.212;6.980;2023-02-28T17:15:10;4.67;;;3.47;;